createdAt,value
2022-10-04T00:00:10.166Z,84.40
2022-10-04T00:00:41.455Z,84.70
2022-10-04T00:01:07.906Z,84.40
2022-10-04T00:01:31.285Z,82.70
2022-10-04T00:01:55.611Z,82.60
2022-10-04T00:02:24.435Z,82.00
2022-10-04T00:02:47.313Z,81.70
2022-10-04T00:03:19.277Z,80.60
2022-10-04T00:03:43.750Z,80.70
2022-10-04T00:04:08.017Z,80.20
2022-10-04T00:04:32.340Z,80.00
2022-10-04T00:05:00.105Z,79.80
2022-10-04T00:05:23.851Z,80.30
2022-10-04T00:05:48.921Z,79.30
2022-10-04T00:06:19.120Z,78.40
2022-10-04T00:06:44.258Z,79.50
2022-10-04T00:07:13.750Z,78.70
2022-10-04T00:07:38.659Z,78.70
2022-10-04T00:08:07.065Z,78.90
2022-10-04T00:08:33.637Z,78.80
2022-10-04T00:08:57.650Z,79.50
2022-10-04T00:09:23.616Z,80.30
2022-10-04T00:09:47.893Z,78.80
2022-10-04T00:10:18.728Z,78.90
2022-10-04T00:10:41.415Z,78.70
2022-10-04T00:11:10.968Z,78.90
2022-10-04T00:11:35.031Z,79.40
2022-10-04T00:11:57.930Z,79.40
2022-10-04T00:12:21.785Z,79.10
2022-10-04T00:12:48.642Z,79.20
2022-10-04T00:13:17.754Z,80.30
2022-10-04T00:13:42.055Z,79.20
2022-10-04T00:14:07.380Z,79.40
2022-10-04T00:14:31.215Z,78.30
2022-10-04T00:14:54.874Z,78.60
2022-10-04T00:15:20.740Z,79.00
2022-10-04T00:15:43.527Z,78.30
2022-10-04T00:16:09.470Z,77.90
2022-10-04T00:16:34.939Z,78.20
2022-10-04T00:16:57.751Z,77.40
2022-10-04T00:17:22.445Z,77.30
2022-10-04T00:17:45.122Z,77.20
2022-10-04T00:18:19.157Z,77.60
2022-10-04T00:18:44.475Z,77.30
2022-10-04T00:19:25.545Z,77.70
2022-10-04T00:19:49.405Z,77.90
2022-10-04T00:20:45.815Z,78.70
2022-10-04T00:21:09.300Z,77.50
2022-10-04T00:22:08.540Z,78.10
2022-10-04T00:22:31.426Z,78.20
2022-10-04T00:23:34.165Z,78.00
2022-10-04T00:24:09.065Z,77.30
2022-10-04T00:24:32.785Z,77.90
2022-10-04T00:25:17.919Z,77.50
2022-10-04T00:25:40.639Z,78.70
2022-10-04T00:26:04.090Z,77.50
2022-10-04T00:27:09.080Z,76.90
2022-10-04T00:27:31.815Z,78.60
2022-10-04T00:28:29.316Z,78.50
2022-10-04T00:28:53.592Z,78.20
2022-10-04T00:29:31.560Z,77.80
2022-10-04T00:30:16.030Z,78.10
2022-10-04T00:30:38.861Z,77.40
2022-10-04T00:31:18.696Z,77.80
2022-10-04T00:32:14.310Z,77.70
2022-10-04T00:32:47.849Z,77.10
2022-10-04T00:33:10.600Z,77.70
2022-10-04T00:33:40.962Z,77.50
2022-10-04T00:34:46.296Z,77.70
2022-10-04T00:35:47.836Z,77.40
2022-10-04T00:36:33.021Z,77.60
2022-10-04T00:36:55.824Z,77.80
2022-10-04T00:37:19.034Z,77.10
2022-10-04T00:37:59.350Z,77.20
2022-10-04T00:38:27.575Z,77.00
2022-10-04T00:39:13.879Z,77.50
2022-10-04T00:39:42.619Z,77.70
2022-10-04T00:40:12.159Z,77.40
2022-10-04T00:40:35.571Z,77.60
2022-10-04T00:41:00.370Z,76.80
2022-10-04T00:41:23.033Z,75.20
2022-10-04T00:42:03.065Z,75.60
2022-10-04T00:42:42.119Z,75.60
2022-10-04T00:43:04.907Z,75.20
2022-10-04T00:43:29.910Z,75.80
2022-10-04T00:43:54.065Z,74.80
2022-10-04T00:44:19.412Z,75.20
2022-10-04T00:44:43.420Z,74.70
2022-10-04T00:45:23.082Z,74.40
2022-10-04T00:45:47.236Z,74.30
2022-10-04T00:46:12.855Z,74.00
2022-10-04T00:46:35.894Z,74.00
2022-10-04T00:46:59.519Z,73.70
2022-10-04T00:47:26.682Z,73.60
2022-10-04T00:48:12.659Z,73.90
2022-10-04T00:48:38.750Z,73.70
2022-10-04T00:49:21.430Z,73.40
2022-10-04T00:49:44.259Z,73.40
2022-10-04T00:50:12.011Z,73.30
2022-10-04T00:50:36.799Z,73.80
2022-10-04T00:51:02.709Z,74.00
2022-10-04T00:51:27.105Z,74.10
2022-10-04T00:51:52.011Z,73.90
2022-10-04T00:52:18.593Z,73.30
2022-10-04T00:52:43.200Z,73.10
2022-10-04T00:53:14.370Z,73.40
2022-10-04T00:54:01.762Z,73.80
2022-10-04T00:54:27.230Z,73.90
2022-10-04T00:54:50.984Z,75.10
2022-10-04T00:55:20.654Z,74.10
2022-10-04T00:55:46.644Z,74.00
2022-10-04T00:56:11.359Z,74.20
2022-10-04T00:56:39.031Z,74.10
2022-10-04T00:57:03.400Z,73.80
2022-10-04T00:57:28.149Z,75.10
2022-10-04T00:57:50.879Z,74.70
2022-10-04T00:58:16.335Z,74.90
2022-10-04T00:58:45.855Z,74.10
2022-10-04T00:59:30.346Z,74.10
2022-10-04T00:59:53.700Z,73.80
2022-10-04T01:00:17.790Z,74.90
2022-10-04T01:00:40.543Z,73.90
2022-10-04T01:01:03.249Z,74.90
2022-10-04T01:01:27.762Z,75.60
2022-10-04T01:01:53.310Z,74.60
2022-10-04T01:02:17.786Z,74.30
2022-10-04T01:02:49.399Z,84.50
2022-10-04T01:03:13.699Z,84.10
2022-10-04T01:03:37.979Z,84.00
2022-10-04T01:04:00.914Z,83.60
2022-10-04T01:04:39.553Z,83.70
2022-10-04T01:05:03.162Z,73.20
2022-10-04T01:05:28.336Z,83.00
2022-10-04T01:05:53.456Z,83.90
2022-10-04T01:06:16.157Z,83.00
2022-10-04T01:06:41.060Z,82.10
2022-10-04T01:07:03.927Z,82.00
2022-10-04T01:07:28.863Z,81.60
2022-10-04T01:07:53.616Z,81.50
2022-10-04T01:08:17.732Z,82.80
2022-10-04T01:08:41.671Z,82.70
2022-10-04T01:09:06.641Z,83.40
2022-10-04T01:09:30.061Z,83.20
2022-10-04T01:09:53.982Z,82.90
2022-10-04T01:10:20.276Z,83.10
2022-10-04T01:10:46.137Z,81.50
2022-10-04T01:11:10.781Z,83.10
2022-10-04T01:11:35.938Z,82.30
2022-10-04T01:12:03.056Z,80.60
2022-10-04T01:12:40.953Z,80.00
2022-10-04T01:13:07.842Z,81.80
2022-10-04T01:13:32.006Z,81.80
2022-10-04T01:13:57.157Z,82.10
2022-10-04T01:14:21.506Z,82.50
2022-10-04T01:14:49.785Z,82.20
2022-10-04T01:15:14.880Z,83.40
2022-10-04T01:15:43.285Z,82.50
2022-10-04T01:16:11.890Z,83.00
2022-10-04T01:16:35.281Z,82.30
2022-10-04T01:17:00.966Z,81.70
2022-10-04T01:17:23.675Z,82.10
2022-10-04T01:18:11.365Z,81.80
2022-10-04T01:18:34.869Z,82.80
2022-10-04T01:18:58.370Z,82.70
2022-10-04T01:19:30.610Z,81.80
2022-10-04T01:19:54.775Z,82.60
2022-10-04T01:20:32.437Z,81.90
2022-10-04T01:20:57.573Z,83.00
2022-10-04T01:21:27.523Z,83.30
2022-10-04T01:21:58.519Z,82.80
2022-10-04T01:22:38.153Z,83.00
2022-10-04T01:23:00.979Z,83.00
2022-10-04T01:23:41.938Z,82.10
2022-10-04T01:24:16.840Z,82.00
2022-10-04T01:24:39.718Z,81.20
2022-10-04T01:25:02.634Z,81.00
2022-10-04T01:25:45.132Z,80.20
2022-10-04T01:26:41.088Z,82.00
2022-10-04T01:27:03.828Z,81.70
2022-10-04T01:27:37.694Z,81.50
2022-10-04T01:28:00.594Z,81.90
2022-10-04T01:28:25.829Z,82.30
2022-10-04T01:28:48.791Z,82.60
2022-10-04T01:29:17.789Z,82.50
2022-10-04T01:29:40.466Z,82.00
2022-10-04T01:30:05.022Z,82.00
2022-10-04T01:30:27.696Z,81.70
2022-10-04T01:30:50.395Z,79.00
2022-10-04T01:31:13.158Z,79.50
2022-10-04T01:31:37.033Z,78.90
2022-10-04T01:32:00.499Z,76.90
2022-10-04T01:32:23.370Z,78.40
2022-10-04T01:32:46.165Z,77.90
2022-10-04T01:33:08.909Z,77.50
2022-10-04T01:33:31.812Z,78.00
2022-10-04T01:33:56.997Z,77.60
2022-10-04T01:34:20.561Z,77.40
2022-10-04T01:34:43.667Z,78.80
2022-10-04T01:35:08.238Z,80.20
2022-10-04T01:35:31.037Z,72.20
2022-10-04T01:35:53.716Z,72.80
2022-10-04T01:36:16.431Z,72.90
2022-10-04T01:36:39.120Z,73.90
2022-10-04T01:37:01.907Z,74.40
2022-10-04T01:37:24.671Z,68.50
2022-10-04T01:37:49.036Z,50.80
2022-10-04T01:38:13.291Z,30.10
2022-10-04T01:38:36.024Z,32.20
2022-10-04T01:38:58.719Z,25.10
2022-10-04T01:39:23.040Z,25.70
2022-10-04T01:39:45.690Z,23.60
2022-10-04T01:40:12.492Z,23.70
2022-10-04T01:40:35.381Z,27.70
2022-10-04T01:41:00.589Z,1.00
2022-10-04T01:41:26.105Z,1.00
2022-10-04T01:41:52.189Z,1.00
2022-10-04T01:42:16.964Z,1.00
2022-10-04T01:42:46.279Z,1.00
2022-10-04T01:43:10.359Z,1.00
2022-10-04T01:43:39.806Z,1.00
2022-10-04T01:44:02.727Z,1.00
2022-10-04T01:44:33.220Z,1.00
2022-10-04T01:44:58.244Z,1.00
2022-10-04T01:45:24.720Z,1.00
2022-10-04T01:45:48.572Z,99.90
2022-10-04T01:46:13.510Z,99.90
2022-10-04T01:46:37.368Z,99.90
2022-10-04T01:47:02.566Z,99.90
2022-10-04T01:47:26.929Z,99.90
2022-10-04T01:47:53.290Z,99.90
2022-10-04T01:48:17.030Z,99.90
2022-10-04T01:48:40.785Z,99.90
2022-10-04T01:49:05.389Z,99.90
2022-10-04T01:49:30.399Z,99.90
2022-10-04T01:49:53.340Z,99.90
2022-10-04T01:50:19.849Z,99.90
2022-10-04T01:50:43.722Z,99.90
2022-10-04T01:51:13.162Z,1.00
2022-10-04T01:51:37.140Z,1.00
2022-10-04T01:52:02.950Z,1.00
2022-10-04T01:52:28.985Z,1.00
2022-10-04T01:52:56.026Z,1.00
2022-10-04T01:53:20.517Z,1.00
2022-10-04T01:53:45.656Z,1.00
2022-10-04T01:54:10.342Z,1.00
2022-10-04T01:54:34.427Z,1.00
2022-10-04T01:55:00.958Z,1.00
2022-10-04T01:55:25.452Z,1.00
2022-10-04T01:55:49.767Z,1.00
2022-10-04T01:56:14.248Z,1.00
2022-10-04T01:56:43.341Z,1.00
2022-10-04T01:57:11.384Z,1.00
2022-10-04T01:57:36.316Z,1.00
2022-10-04T01:58:01.530Z,1.00
2022-10-04T01:58:25.575Z,1.00
2022-10-04T01:58:50.126Z,1.00
2022-10-04T01:59:15.646Z,1.00
2022-10-04T01:59:40.811Z,1.00
2022-10-04T02:00:05.777Z,1.00
2022-10-04T02:00:28.630Z,1.00
2022-10-04T02:00:56.577Z,1.00
2022-10-04T02:01:22.664Z,1.00
2022-10-04T02:01:48.644Z,1.00
2022-10-04T02:02:16.993Z,1.00
2022-10-04T02:02:42.622Z,1.00
2022-10-04T02:03:08.492Z,1.00
2022-10-04T02:03:35.302Z,1.00
2022-10-04T02:03:59.497Z,1.00
2022-10-04T02:04:25.937Z,1.00
2022-10-04T02:04:52.833Z,1.00
2022-10-04T02:05:18.894Z,1.00
2022-10-04T02:05:44.938Z,1.00
2022-10-04T02:06:08.704Z,1.00
2022-10-04T02:06:38.292Z,1.00
2022-10-04T02:07:01.277Z,1.00
2022-10-04T02:07:26.533Z,1.00
2022-10-04T02:07:49.272Z,1.00
2022-10-04T02:08:16.511Z,1.00
2022-10-04T02:08:47.033Z,1.00
2022-10-04T02:09:10.713Z,1.00
2022-10-04T02:09:34.767Z,1.00
2022-10-04T02:09:59.833Z,1.00
2022-10-04T02:10:24.777Z,1.00
2022-10-04T02:10:50.068Z,1.00
2022-10-04T02:11:17.267Z,1.00
2022-10-04T02:11:41.778Z,1.00
2022-10-04T02:12:06.367Z,1.00
2022-10-04T02:12:31.568Z,1.00
2022-10-04T02:12:54.933Z,1.00
2022-10-04T02:13:21.763Z,1.00
2022-10-04T02:13:44.827Z,1.00
2022-10-04T02:14:14.241Z,1.00
2022-10-04T02:14:36.931Z,1.00
2022-10-04T02:15:03.401Z,1.00
2022-10-04T02:15:26.932Z,1.00
2022-10-04T02:15:49.821Z,1.00
2022-10-04T02:16:12.701Z,1.00
2022-10-04T02:16:36.246Z,1.00
2022-10-04T02:17:00.151Z,1.00
2022-10-04T02:17:23.927Z,1.00
2022-10-04T02:17:46.740Z,1.00
2022-10-04T02:18:10.711Z,1.00
2022-10-04T02:18:34.418Z,1.00
2022-10-04T02:18:58.191Z,99.90
2022-10-04T02:19:21.297Z,99.90
2022-10-04T02:19:45.130Z,99.90
2022-10-04T02:20:12.487Z,99.90
2022-10-04T02:20:35.311Z,99.90
2022-10-04T02:21:00.333Z,99.90
2022-10-04T02:21:23.036Z,99.90
2022-10-04T02:21:48.323Z,99.90
2022-10-04T02:22:11.220Z,99.90
2022-10-04T02:22:34.101Z,99.90
2022-10-04T02:22:59.721Z,99.90
2022-10-04T02:23:23.996Z,99.90
2022-10-04T02:23:46.999Z,99.90
2022-10-04T02:24:09.864Z,99.90
2022-10-04T02:24:33.715Z,99.90
2022-10-04T02:24:57.271Z,99.90
2022-10-04T02:25:22.420Z,99.90
2022-10-04T02:25:45.224Z,99.90
2022-10-04T02:26:08.100Z,99.90
2022-10-04T02:26:33.761Z,99.90
2022-10-04T02:26:56.510Z,99.90
2022-10-04T02:27:19.210Z,99.90
2022-10-04T02:27:44.349Z,99.90
2022-10-04T02:28:11.006Z,99.90
2022-10-04T02:28:34.373Z,99.90
2022-10-04T02:28:57.085Z,99.90
2022-10-04T02:29:22.320Z,99.90
2022-10-04T02:29:44.997Z,99.90
2022-10-04T02:30:09.370Z,99.90
2022-10-04T02:30:36.040Z,99.90
2022-10-04T02:31:17.332Z,99.90
2022-10-04T02:31:58.885Z,99.90
2022-10-04T02:32:40.085Z,99.90
2022-10-04T02:33:02.825Z,99.90
2022-10-04T02:33:25.611Z,99.90
2022-10-04T02:33:51.125Z,99.90
2022-10-04T02:34:14.255Z,99.90
2022-10-04T02:34:36.955Z,1.00
2022-10-04T02:34:59.831Z,1.00
2022-10-04T02:35:24.802Z,1.00
2022-10-04T02:35:49.680Z,1.00
2022-10-04T02:36:13.305Z,1.00
2022-10-04T02:36:39.102Z,1.00
2022-10-04T02:37:04.155Z,1.00
2022-10-04T02:37:28.013Z,1.00
2022-10-04T02:37:57.040Z,1.00
2022-10-04T02:38:22.240Z,1.00
2022-10-04T02:38:50.707Z,1.00
2022-10-04T02:39:16.010Z,1.00
2022-10-04T02:39:44.195Z,1.00
2022-10-04T02:40:10.282Z,1.00
2022-10-04T02:40:35.956Z,1.00
2022-10-04T02:41:00.602Z,1.00
2022-10-04T02:41:25.523Z,1.00
2022-10-04T02:41:50.575Z,1.00
2022-10-04T02:42:20.145Z,1.00
2022-10-04T02:42:45.110Z,1.00
2022-10-04T02:43:11.100Z,1.00
2022-10-04T02:43:35.374Z,1.00
2022-10-04T02:44:00.101Z,1.00
2022-10-04T02:44:25.115Z,1.00
2022-10-04T02:44:49.905Z,1.00
2022-10-04T02:45:17.277Z,1.00
2022-10-04T02:45:45.980Z,1.00
2022-10-04T02:46:10.075Z,1.00
2022-10-04T02:46:34.329Z,1.00
2022-10-04T02:47:03.350Z,1.00
2022-10-04T02:47:29.720Z,1.00
2022-10-04T02:47:55.140Z,1.00
2022-10-04T02:48:29.704Z,1.00
2022-10-04T02:48:55.815Z,1.00
2022-10-04T02:49:22.020Z,1.00
2022-10-04T02:49:46.675Z,1.00
2022-10-04T02:50:10.330Z,1.00
2022-10-04T02:50:37.955Z,1.00
2022-10-04T02:51:05.737Z,1.00
2022-10-04T02:51:33.773Z,1.00
2022-10-04T02:52:01.994Z,1.00
2022-10-04T02:52:26.415Z,1.00
2022-10-04T02:52:53.059Z,1.00
2022-10-04T02:53:19.576Z,1.00
2022-10-04T02:53:49.378Z,1.00
2022-10-04T02:54:16.456Z,1.00
2022-10-04T02:54:42.896Z,1.00
2022-10-04T02:55:06.561Z,1.00
2022-10-04T02:55:30.632Z,1.00
2022-10-04T02:55:53.542Z,1.00
2022-10-04T02:56:18.631Z,1.00
2022-10-04T02:56:42.375Z,1.00
2022-10-04T02:57:05.786Z,1.00
2022-10-04T02:57:32.051Z,1.00
2022-10-04T02:57:54.817Z,1.00
2022-10-04T02:58:22.246Z,1.00
2022-10-04T02:58:44.942Z,1.00
2022-10-04T02:59:07.710Z,1.00
2022-10-04T02:59:33.546Z,1.00
2022-10-04T03:00:11.422Z,1.00
2022-10-04T03:00:34.298Z,1.00
2022-10-04T03:01:00.694Z,1.00
2022-10-04T03:01:27.717Z,1.00
2022-10-04T03:01:52.559Z,1.00
2022-10-04T03:02:30.410Z,1.00
2022-10-04T03:03:16.994Z,1.00
2022-10-04T03:03:42.463Z,1.00
2022-10-04T03:04:05.226Z,1.00
2022-10-04T03:04:28.819Z,1.00
2022-10-04T03:04:51.612Z,1.00
2022-10-04T03:05:14.437Z,1.00
2022-10-04T03:05:39.411Z,1.00
2022-10-04T03:06:04.471Z,1.00
2022-10-04T03:06:32.706Z,1.00
2022-10-04T03:06:55.461Z,1.00
2022-10-04T03:07:18.194Z,1.00
2022-10-04T03:07:43.051Z,1.00
2022-10-04T03:08:11.041Z,1.00
2022-10-04T03:08:35.992Z,1.00
2022-10-04T03:09:01.756Z,1.00
2022-10-04T03:09:29.476Z,1.00
2022-10-04T03:09:55.286Z,1.00
2022-10-04T03:10:17.982Z,1.00
2022-10-04T03:10:42.767Z,1.00
2022-10-04T03:11:05.763Z,1.00
2022-10-04T03:11:31.695Z,1.00
2022-10-04T03:11:54.397Z,1.00
2022-10-04T03:12:19.356Z,1.00
2022-10-04T03:12:42.686Z,1.00
2022-10-04T03:13:05.438Z,1.00
2022-10-04T03:13:28.241Z,1.00
2022-10-04T03:13:52.667Z,1.00
2022-10-04T03:14:17.122Z,1.00
2022-10-04T03:14:39.938Z,1.00
2022-10-04T03:15:02.807Z,1.00
2022-10-04T03:15:25.617Z,1.00
2022-10-04T03:15:50.576Z,1.00
2022-10-04T03:16:16.509Z,1.00
2022-10-04T03:16:41.028Z,1.00
2022-10-04T03:17:06.830Z,1.00
2022-10-04T03:17:29.850Z,1.00
2022-10-04T03:17:52.483Z,1.00
2022-10-04T03:18:15.348Z,1.00
2022-10-04T03:18:38.343Z,1.00
2022-10-04T03:19:01.349Z,1.00
2022-10-04T03:19:25.487Z,1.00
2022-10-04T03:19:48.770Z,1.00
2022-10-04T03:20:14.904Z,1.00
2022-10-04T03:20:38.306Z,1.00
2022-10-04T03:21:01.981Z,1.00
2022-10-04T03:21:26.951Z,1.00
2022-10-04T03:21:53.873Z,1.00
2022-10-04T03:22:16.728Z,1.00
2022-10-04T03:22:46.626Z,1.00
2022-10-04T03:23:09.649Z,1.00
2022-10-04T03:23:33.649Z,1.00
2022-10-04T03:23:57.014Z,1.00
2022-10-04T03:24:24.213Z,1.00
2022-10-04T03:24:48.027Z,1.00
2022-10-04T03:25:13.929Z,1.00
2022-10-04T03:25:51.063Z,1.00
2022-10-04T03:26:19.848Z,1.00
2022-10-04T03:26:43.832Z,1.00
2022-10-04T03:27:07.123Z,1.00
2022-10-04T03:27:32.193Z,1.00
2022-10-04T03:27:54.966Z,1.00
2022-10-04T03:28:20.141Z,1.00
2022-10-04T03:28:45.407Z,1.00
2022-10-04T03:29:11.548Z,1.00
2022-10-04T03:29:34.320Z,1.00
2022-10-04T03:29:59.720Z,1.00
2022-10-04T03:30:22.356Z,1.00
2022-10-04T03:30:47.876Z,1.00
2022-10-04T03:31:10.829Z,1.00
2022-10-04T03:31:36.037Z,1.00
2022-10-04T03:31:58.972Z,1.00
2022-10-04T03:32:24.185Z,1.00
2022-10-04T03:32:47.024Z,1.00
2022-10-04T03:33:17.594Z,1.00
2022-10-04T03:33:40.345Z,1.00
2022-10-04T03:34:03.189Z,1.00
2022-10-04T03:34:29.929Z,1.00
2022-10-04T03:34:55.689Z,1.00
2022-10-04T03:35:23.158Z,1.00
2022-10-04T03:35:46.159Z,1.00
2022-10-04T03:36:11.904Z,1.00
2022-10-04T03:36:34.639Z,1.00
2022-10-04T03:36:58.788Z,1.00
2022-10-04T03:37:21.726Z,1.00
2022-10-04T03:37:46.882Z,1.00
2022-10-04T03:38:10.125Z,1.00
2022-10-04T03:38:33.808Z,1.00
2022-10-04T03:38:58.711Z,1.00
2022-10-04T03:39:30.227Z,1.00
2022-10-04T03:39:54.257Z,1.00
2022-10-04T03:40:19.647Z,1.00
2022-10-04T03:40:43.705Z,1.00
2022-10-04T03:41:06.679Z,1.00
2022-10-04T03:41:29.405Z,1.00
2022-10-04T03:41:53.481Z,1.00
2022-10-04T03:42:19.945Z,1.00
2022-10-04T03:42:43.226Z,1.00
2022-10-04T03:43:08.153Z,1.00
2022-10-04T03:43:34.282Z,1.00
2022-10-04T03:44:02.758Z,1.00
2022-10-04T03:44:27.745Z,1.00
2022-10-04T03:44:54.544Z,1.00
2022-10-04T03:45:20.513Z,1.00
2022-10-04T03:45:43.151Z,1.00
2022-10-04T03:46:06.410Z,1.00
2022-10-04T03:46:29.436Z,1.00
2022-10-04T03:46:52.066Z,1.00
2022-10-04T03:47:18.676Z,1.00
2022-10-04T03:47:43.532Z,1.00
2022-10-04T03:48:11.693Z,1.00
2022-10-04T03:48:36.653Z,1.00
2022-10-04T03:49:01.893Z,1.00
2022-10-04T03:49:30.402Z,1.00
2022-10-04T03:49:55.473Z,1.00
2022-10-04T03:50:20.307Z,1.00
2022-10-04T03:50:48.227Z,1.00
2022-10-04T03:51:15.292Z,1.00
2022-10-04T03:51:38.073Z,1.00
2022-10-04T03:52:03.193Z,1.00
2022-10-04T03:52:29.630Z,1.00
2022-10-04T03:52:54.881Z,1.00
2022-10-04T03:53:24.813Z,1.00
2022-10-04T03:53:48.917Z,1.00
2022-10-04T03:54:14.116Z,1.00
2022-10-04T03:54:38.331Z,1.00
2022-10-04T03:55:02.786Z,1.00
2022-10-04T03:55:33.082Z,1.00
2022-10-04T03:55:55.749Z,1.00
2022-10-04T03:56:23.823Z,1.00
2022-10-04T03:56:46.590Z,1.00
2022-10-04T03:57:10.231Z,1.00
2022-10-04T03:57:35.230Z,1.00
2022-10-04T03:57:57.902Z,1.00
2022-10-04T03:58:20.696Z,1.00
2022-10-04T03:58:45.816Z,1.00
2022-10-04T03:59:08.621Z,1.00
2022-10-04T03:59:34.451Z,1.00
2022-10-04T03:59:59.868Z,1.00
2022-10-04T04:00:24.742Z,1.00
2022-10-04T04:00:56.429Z,1.00
2022-10-04T04:01:26.554Z,1.00
2022-10-04T04:01:50.003Z,1.00
2022-10-04T04:02:18.782Z,1.00
2022-10-04T04:02:46.450Z,1.00
2022-10-04T04:03:09.601Z,1.00
2022-10-04T04:03:38.156Z,1.00
2022-10-04T04:04:03.565Z,1.00
2022-10-04T04:04:32.227Z,1.00
2022-10-04T04:04:59.506Z,1.00
2022-10-04T04:05:24.522Z,1.00
2022-10-04T04:05:50.246Z,1.00
2022-10-04T04:06:15.482Z,1.00
2022-10-04T04:06:41.841Z,1.00
2022-10-04T04:07:06.650Z,1.00
2022-10-04T04:07:32.142Z,1.00
2022-10-04T04:08:01.233Z,1.00
2022-10-04T04:08:32.062Z,1.00
2022-10-04T04:08:54.916Z,1.00
2022-10-04T04:09:22.873Z,1.00
2022-10-04T04:09:51.007Z,1.00
2022-10-04T04:10:18.478Z,1.00
2022-10-04T04:10:47.477Z,1.00
2022-10-04T04:11:13.937Z,1.00
2022-10-04T04:11:36.617Z,1.00
2022-10-04T04:12:02.312Z,1.00
2022-10-04T04:12:28.506Z,1.00
2022-10-04T04:12:55.212Z,1.00
2022-10-04T04:13:20.677Z,1.00
2022-10-04T04:13:46.092Z,1.00
2022-10-04T04:14:11.661Z,1.00
2022-10-04T04:14:34.432Z,1.00
2022-10-04T04:14:59.537Z,1.00
2022-10-04T04:15:22.726Z,1.00
2022-10-04T04:15:45.752Z,1.00
2022-10-04T04:16:11.586Z,1.00
2022-10-04T04:16:36.970Z,1.00
2022-10-04T04:17:33.121Z,1.00
2022-10-04T04:17:55.811Z,1.00
2022-10-04T04:18:19.514Z,1.00
2022-10-04T04:18:43.690Z,1.00
2022-10-04T04:19:12.007Z,1.00
2022-10-04T04:19:39.663Z,1.00
2022-10-04T04:20:07.472Z,1.00
2022-10-04T04:20:32.338Z,1.00
2022-10-04T04:20:59.216Z,1.00
2022-10-04T04:21:25.101Z,1.00
2022-10-04T04:21:47.841Z,1.00
2022-10-04T04:22:12.088Z,1.00
2022-10-04T04:22:35.357Z,1.00
2022-10-04T04:23:02.984Z,1.00
2022-10-04T04:23:29.102Z,1.00
2022-10-04T04:23:56.562Z,1.00
2022-10-04T04:24:25.072Z,1.00
2022-10-04T04:24:50.601Z,1.00
2022-10-04T04:25:14.881Z,1.00
2022-10-04T04:25:40.994Z,1.00
2022-10-04T04:26:16.477Z,1.00
2022-10-04T04:26:41.286Z,1.00
2022-10-04T04:27:05.508Z,1.00
2022-10-04T04:27:31.189Z,1.00
2022-10-04T04:28:06.357Z,1.00
2022-10-04T04:28:31.751Z,1.00
2022-10-04T04:28:55.678Z,1.00
2022-10-04T04:29:25.166Z,1.00
2022-10-04T04:29:50.314Z,1.00
2022-10-04T04:30:16.619Z,1.00
2022-10-04T04:30:39.531Z,1.00
2022-10-04T04:31:07.701Z,1.00
2022-10-04T04:31:33.341Z,1.00
2022-10-04T04:31:59.172Z,1.00
2022-10-04T04:32:25.875Z,1.00
2022-10-04T04:32:52.851Z,1.00
2022-10-04T04:33:21.308Z,1.00
2022-10-04T04:33:46.406Z,1.00
2022-10-04T04:34:19.005Z,1.00
2022-10-04T04:34:50.984Z,1.00
2022-10-04T04:35:26.616Z,1.00
2022-10-04T04:35:50.504Z,1.00
2022-10-04T04:36:17.419Z,1.00
2022-10-04T04:36:43.023Z,1.00
2022-10-04T04:37:09.865Z,1.00
2022-10-04T04:37:32.973Z,1.00
2022-10-04T04:38:17.436Z,1.00
2022-10-04T04:39:03.505Z,99.90
2022-10-04T04:39:40.095Z,99.90
2022-10-04T04:40:20.004Z,99.90
2022-10-04T04:40:42.781Z,1.00
2022-10-04T04:41:09.998Z,1.00
2022-10-04T04:41:36.142Z,1.00
2022-10-04T04:41:58.859Z,1.00
2022-10-04T04:42:24.020Z,1.00
2022-10-04T04:42:46.851Z,1.00
2022-10-04T04:43:12.020Z,1.00
2022-10-04T04:43:34.910Z,1.00
2022-10-04T04:43:57.616Z,1.00
2022-10-04T04:44:20.684Z,1.00
2022-10-04T04:44:49.019Z,1.00
2022-10-04T04:45:16.998Z,1.00
2022-10-04T04:45:39.772Z,1.00
2022-10-04T04:46:26.002Z,1.00
2022-10-04T04:46:45.611Z,1.00
2022-10-04T04:47:09.350Z,1.00
2022-10-04T04:47:37.909Z,1.00
2022-10-04T04:48:01.430Z,1.00
2022-10-04T04:48:26.464Z,1.00
2022-10-04T04:48:50.719Z,1.00
2022-10-04T04:49:16.464Z,1.00
2022-10-04T04:49:40.347Z,1.00
2022-10-04T04:50:08.015Z,1.00
2022-10-04T04:50:32.078Z,1.00
2022-10-04T04:50:58.368Z,1.00
2022-10-04T04:51:24.518Z,1.00
2022-10-04T04:51:50.543Z,1.00
2022-10-04T04:52:16.848Z,1.00
2022-10-04T04:52:39.538Z,1.00
2022-10-04T04:53:07.526Z,1.00
2022-10-04T04:53:30.790Z,1.00
2022-10-04T04:53:55.591Z,1.00
2022-10-04T04:54:19.040Z,1.00
2022-10-04T04:54:41.871Z,1.00
2022-10-04T04:55:05.429Z,1.00
2022-10-04T04:55:50.015Z,1.00
2022-10-04T04:56:19.368Z,1.00
2022-10-04T04:56:42.070Z,1.00
2022-10-04T04:57:05.463Z,1.00
2022-10-04T04:57:28.198Z,1.00
2022-10-04T04:57:52.431Z,1.00
2022-10-04T04:58:19.138Z,1.00
2022-10-04T04:58:43.695Z,1.00
2022-10-04T04:59:07.620Z,1.00
2022-10-04T04:59:32.637Z,1.00
2022-10-04T04:59:57.311Z,1.00
2022-10-04T05:00:21.294Z,1.00
2022-10-04T05:00:44.068Z,1.00
2022-10-04T05:01:11.250Z,1.00
2022-10-04T05:01:35.769Z,1.00
2022-10-04T05:01:58.558Z,1.00
2022-10-04T05:02:31.880Z,1.00
2022-10-04T05:02:58.616Z,1.00
2022-10-04T05:03:21.959Z,1.00
2022-10-04T05:03:44.792Z,1.00
2022-10-04T05:04:18.052Z,1.00
2022-10-04T05:04:41.573Z,1.00
2022-10-04T05:05:22.005Z,1.00
2022-10-04T05:05:45.531Z,1.00
2022-10-04T05:06:22.579Z,1.00
2022-10-04T05:06:45.584Z,1.00
2022-10-04T05:07:16.851Z,1.00
2022-10-04T05:07:39.683Z,1.00
2022-10-04T05:08:15.433Z,1.00
2022-10-04T05:08:41.425Z,1.00
2022-10-04T05:09:05.448Z,1.00
2022-10-04T05:09:30.719Z,1.00
2022-10-04T05:09:53.437Z,1.00
2022-10-04T05:10:33.991Z,1.00
2022-10-04T05:11:01.652Z,1.00
2022-10-04T05:11:26.148Z,1.00
2022-10-04T05:11:49.948Z,1.00
2022-10-04T05:12:17.044Z,1.00
2022-10-04T05:12:39.835Z,1.00
2022-10-04T05:13:04.514Z,1.00
2022-10-04T05:13:30.547Z,1.00
2022-10-04T05:13:53.752Z,1.00
2022-10-04T05:14:16.407Z,1.00
2022-10-04T05:14:45.432Z,1.00
2022-10-04T05:15:11.180Z,1.00
2022-10-04T05:15:35.226Z,1.00
2022-10-04T05:15:57.927Z,1.00
2022-10-04T05:16:21.889Z,1.00
2022-10-04T05:16:46.447Z,1.00
2022-10-04T05:17:17.987Z,1.00
2022-10-04T05:17:40.677Z,1.00
2022-10-04T05:18:12.983Z,1.00
2022-10-04T05:18:35.701Z,1.00
2022-10-04T05:18:59.197Z,1.00
2022-10-04T05:19:23.383Z,1.00
2022-10-04T05:19:46.488Z,1.00
2022-10-04T05:20:11.382Z,1.00
2022-10-04T05:20:34.555Z,1.00
2022-10-04T05:20:59.453Z,1.00
2022-10-04T05:21:24.623Z,1.00
2022-10-04T05:21:47.874Z,99.90
2022-10-04T05:22:11.837Z,99.90
2022-10-04T05:22:35.198Z,99.90
2022-10-04T05:22:57.862Z,99.90
2022-10-04T05:23:20.603Z,99.90
2022-10-04T05:23:45.878Z,99.90
2022-10-04T05:24:11.034Z,99.90
2022-10-04T05:24:34.642Z,99.90
2022-10-04T05:24:59.358Z,99.90
2022-10-04T05:25:26.902Z,99.90
2022-10-04T05:25:51.038Z,99.90
2022-10-04T05:26:14.945Z,99.90
2022-10-04T05:26:37.636Z,99.90
2022-10-04T05:27:01.791Z,1.00
2022-10-04T05:27:27.535Z,1.00
2022-10-04T05:27:50.374Z,1.00
2022-10-04T05:28:15.208Z,1.00
2022-10-04T05:28:38.442Z,1.00
2022-10-04T05:29:06.847Z,1.00
2022-10-04T05:29:32.067Z,1.00
2022-10-04T05:29:58.732Z,1.00
2022-10-04T05:30:33.412Z,1.00
2022-10-04T05:31:06.231Z,1.00
2022-10-04T05:31:34.642Z,2.20
2022-10-04T05:32:03.688Z,27.50
2022-10-04T05:32:29.776Z,43.90
2022-10-04T05:32:58.217Z,58.50
2022-10-04T05:33:24.692Z,77.90
2022-10-04T05:33:49.448Z,56.50
2022-10-04T05:34:20.007Z,66.50
2022-10-04T05:34:45.644Z,82.40
2022-10-04T05:35:15.787Z,83.30
2022-10-04T05:35:43.266Z,92.60
2022-10-04T05:36:25.608Z,94.10
2022-10-04T05:36:58.091Z,99.00
2022-10-04T05:37:44.547Z,97.90
2022-10-04T05:38:09.767Z,98.70
2022-10-04T05:38:35.256Z,99.90
2022-10-04T05:39:02.907Z,99.90
2022-10-04T05:39:28.167Z,99.90
2022-10-04T05:39:55.812Z,99.90
2022-10-04T05:40:27.877Z,99.90
2022-10-04T05:40:56.894Z,99.90
2022-10-04T05:41:22.487Z,99.70
2022-10-04T05:41:49.291Z,99.30
2022-10-04T05:42:16.027Z,99.90
2022-10-04T05:42:40.802Z,99.90
2022-10-04T05:43:24.992Z,99.90
2022-10-04T05:43:50.397Z,99.90
2022-10-04T05:44:23.842Z,99.90
2022-10-04T05:44:50.077Z,99.90
2022-10-04T05:45:17.627Z,99.90
2022-10-04T05:45:40.388Z,99.90
2022-10-04T05:46:16.441Z,99.90
2022-10-04T05:46:43.363Z,99.90
2022-10-04T05:47:07.117Z,99.90
2022-10-04T05:47:30.604Z,99.90
2022-10-04T05:47:54.278Z,99.90
2022-10-04T05:48:17.046Z,99.90
2022-10-04T05:48:39.875Z,99.90
2022-10-04T05:49:06.637Z,99.90
2022-10-04T05:49:31.281Z,99.90